createdAt,value
2022-10-29T00:02:48.119Z,17.20
2022-10-29T00:06:13.087Z,17.20
2022-10-29T00:09:36.850Z,17.20
2022-10-29T00:13:03.548Z,17.20
2022-10-29T00:16:29.655Z,17.10
2022-10-29T00:19:53.442Z,17.10
2022-10-29T00:23:17.277Z,17.20
2022-10-29T00:26:41.277Z,17.20
2022-10-29T00:30:07.305Z,17.20
2022-10-29T00:33:30.905Z,17.30
2022-10-29T00:36:54.621Z,17.20
2022-10-29T00:40:18.399Z,17.20
2022-10-29T00:43:47.801Z,17.20
2022-10-29T00:47:20.438Z,17.20
2022-10-29T00:50:45.206Z,17.10
2022-10-29T00:54:12.186Z,17.10
2022-10-29T00:57:39.200Z,17.00
2022-10-29T01:01:03.469Z,16.90
2022-10-29T01:04:28.920Z,16.80
2022-10-29T01:07:52.679Z,16.70
2022-10-29T01:11:24.358Z,16.70
2022-10-29T01:14:57.559Z,16.80
2022-10-29T01:18:25.753Z,16.70
2022-10-29T01:21:59.141Z,16.70
2022-10-29T01:25:42.720Z,16.80
2022-10-29T01:29:28.419Z,16.80
2022-10-29T01:33:07.729Z,16.80
2022-10-29T01:36:35.019Z,16.90
2022-10-29T01:40:06.316Z,16.80
2022-10-29T01:43:35.698Z,16.80
2022-10-29T01:47:01.914Z,16.80
2022-10-29T01:50:27.747Z,16.80
2022-10-29T01:53:52.398Z,16.70
2022-10-29T01:57:31.771Z,16.70
2022-10-29T02:01:04.502Z,16.80
2022-10-29T02:04:54.825Z,16.80
2022-10-29T02:08:30.593Z,16.80
2022-10-29T02:12:00.097Z,16.80
2022-10-29T02:15:29.099Z,16.70
2022-10-29T02:18:53.078Z,16.60
2022-10-29T02:22:16.839Z,16.60
2022-10-29T02:25:42.338Z,16.60
2022-10-29T02:29:06.228Z,16.50
2022-10-29T02:32:29.830Z,16.50
2022-10-29T02:35:53.431Z,16.50
2022-10-29T02:39:17.181Z,16.50
2022-10-29T02:42:42.284Z,16.50
2022-10-29T02:46:16.481Z,16.50
2022-10-29T02:49:40.176Z,16.50
2022-10-29T02:53:03.952Z,16.40
2022-10-29T02:56:27.541Z,16.50
2022-10-29T02:59:52.533Z,16.50
2022-10-29T03:03:16.202Z,16.40
2022-10-29T03:06:39.900Z,16.40
2022-10-29T03:10:03.794Z,16.30
2022-10-29T03:13:27.655Z,16.20
2022-10-29T03:16:52.758Z,16.20
2022-10-29T03:20:16.673Z,16.20
2022-10-29T03:23:40.368Z,16.20
2022-10-29T03:27:04.084Z,16.20
2022-10-29T03:30:27.776Z,16.10
2022-10-29T03:33:52.831Z,16.10
2022-10-29T03:37:16.561Z,16.10
2022-10-29T03:40:40.186Z,16.10
2022-10-29T03:44:03.834Z,16.00
2022-10-29T03:47:27.789Z,16.00
2022-10-29T03:51:01.418Z,16.10
2022-10-29T03:54:25.132Z,16.10
2022-10-29T03:57:48.790Z,16.00
2022-10-29T04:01:12.514Z,16.00
2022-10-29T04:04:36.227Z,16.10
2022-10-29T04:08:01.336Z,16.00
2022-10-29T04:11:25.088Z,16.10
2022-10-29T04:14:48.735Z,16.00
2022-10-29T04:18:13.153Z,16.00
2022-10-29T04:29:05.757Z,15.80
2022-10-29T04:32:29.530Z,15.70
2022-10-29T04:35:54.143Z,15.70
2022-10-29T04:39:19.662Z,15.60
2022-10-29T04:42:47.783Z,15.50
2022-10-29T04:46:12.084Z,15.40
2022-10-29T04:49:35.975Z,15.30
2022-10-29T04:53:00.093Z,15.30
2022-10-29T04:56:25.055Z,15.30
2022-10-29T04:59:50.132Z,15.30
2022-10-29T05:03:14.146Z,15.40
2022-10-29T05:06:37.794Z,15.50
2022-10-29T05:10:01.535Z,15.50
2022-10-29T05:13:25.502Z,15.50
2022-10-29T05:16:50.412Z,15.60
2022-10-29T05:20:14.007Z,15.60
2022-10-29T05:23:37.767Z,15.60
2022-10-29T05:27:02.131Z,15.60
2022-10-29T05:30:25.882Z,15.50
2022-10-29T05:33:53.915Z,15.50
2022-10-29T05:37:19.587Z,15.50
2022-10-29T05:40:45.203Z,15.40
2022-10-29T05:44:09.169Z,15.40
2022-10-29T05:47:32.896Z,15.50
2022-10-29T05:50:58.235Z,15.50
2022-10-29T05:54:22.780Z,15.40
2022-10-29T05:57:46.401Z,15.30
2022-10-29T06:01:11.032Z,15.40
2022-10-29T06:04:35.725Z,15.40
2022-10-29T06:08:01.803Z,15.40
2022-10-29T06:11:25.398Z,15.30
2022-10-29T06:14:49.034Z,15.40
2022-10-29T06:18:12.815Z,15.40
2022-10-29T06:21:36.639Z,15.40
2022-10-29T06:25:01.716Z,15.40
2022-10-29T06:28:28.048Z,15.50
2022-10-29T06:31:53.968Z,15.50
2022-10-29T06:35:17.685Z,15.60
2022-10-29T06:38:41.299Z,15.60
2022-10-29T06:42:06.367Z,15.60
2022-10-29T06:45:31.693Z,15.70
2022-10-29T06:48:55.522Z,15.70
2022-10-29T06:52:19.211Z,15.80
2022-10-29T06:55:42.853Z,15.90
2022-10-29T06:59:08.294Z,16.00
2022-10-29T07:02:31.949Z,16.10
2022-10-29T07:05:59.451Z,16.20
2022-10-29T07:09:23.109Z,16.10
2022-10-29T07:12:46.869Z,15.90
2022-10-29T07:16:11.846Z,15.80
2022-10-29T07:19:35.593Z,15.90
2022-10-29T07:23:00.308Z,15.90
2022-10-29T07:26:23.950Z,15.90
2022-10-29T07:29:47.705Z,16.00
2022-10-29T07:33:13.169Z,16.10
2022-10-29T07:36:36.765Z,16.10
2022-10-29T07:40:00.404Z,16.10
2022-10-29T07:43:24.078Z,16.20
2022-10-29T07:46:47.792Z,16.30
2022-10-29T07:50:13.031Z,16.40
2022-10-29T07:53:36.689Z,16.60
2022-10-29T07:57:00.329Z,16.90
2022-10-29T08:00:24.250Z,17.10
2022-10-29T08:03:48.124Z,17.20
2022-10-29T08:07:13.366Z,17.20
2022-10-29T08:10:37.657Z,17.50
2022-10-29T08:14:01.538Z,17.90
2022-10-29T08:17:25.254Z,18.20
2022-10-29T08:20:49.454Z,18.60
2022-10-29T08:24:14.502Z,18.80
2022-10-29T08:27:38.117Z,18.50
2022-10-29T08:31:01.770Z,18.10
2022-10-29T08:34:25.476Z,17.50
2022-10-29T08:37:49.221Z,17.40
2022-10-29T08:41:28.816Z,17.60
2022-10-29T08:45:24.860Z,17.50
2022-10-29T08:48:53.798Z,17.40
2022-10-29T08:52:24.155Z,17.50
2022-10-29T08:55:48.214Z,17.50
2022-10-29T08:59:16.971Z,17.40
2022-10-29T09:02:41.208Z,17.30
2022-10-29T09:06:12.098Z,17.40
2022-10-29T09:09:40.130Z,17.50
2022-10-29T09:13:21.158Z,17.60
2022-10-29T09:16:53.382Z,17.70
2022-10-29T09:20:29.388Z,18.10
2022-10-29T09:24:02.956Z,18.60
2022-10-29T09:27:38.235Z,19.20
2022-10-29T09:31:09.318Z,20.20
2022-10-29T09:34:41.213Z,22.20
2022-10-29T09:38:13.862Z,22.70
2022-10-29T09:41:39.947Z,23.70
2022-10-29T09:45:09.239Z,24.20
2022-10-29T09:48:38.974Z,23.90
2022-10-29T09:52:07.864Z,23.10
2022-10-29T09:55:39.544Z,22.80
2022-10-29T09:59:16.356Z,22.70
2022-10-29T10:02:44.788Z,22.30
2022-10-29T10:06:09.904Z,22.30
2022-10-29T10:09:52.968Z,22.90
2022-10-29T10:13:18.350Z,23.70
2022-10-29T10:16:43.998Z,23.80
2022-10-29T10:20:28.262Z,23.10
2022-10-29T10:23:52.879Z,22.60
2022-10-29T10:27:31.780Z,22.70
2022-10-29T10:31:12.332Z,24.00
2022-10-29T10:34:38.610Z,24.50
2022-10-29T10:38:09.369Z,24.40
2022-10-29T10:41:36.557Z,24.30
2022-10-29T10:45:03.775Z,24.20
2022-10-29T10:48:33.387Z,24.20
2022-10-29T10:51:59.350Z,23.90
2022-10-29T10:55:28.669Z,24.00
2022-10-29T10:59:02.633Z,23.50
2022-10-29T11:02:34.609Z,23.70
2022-10-29T11:06:03.949Z,24.10
2022-10-29T11:09:33.365Z,24.10
2022-10-29T11:13:01.485Z,23.80
2022-10-29T11:16:31.758Z,23.50
2022-10-29T11:20:00.759Z,23.30
2022-10-29T11:23:34.727Z,22.80
2022-10-29T11:27:03.675Z,22.70
2022-10-29T11:30:29.148Z,22.90
2022-10-29T11:34:01.418Z,22.80
2022-10-29T11:37:32.646Z,22.80
2022-10-29T11:41:04.757Z,22.50
2022-10-29T11:44:29.160Z,22.40
2022-10-29T11:48:12.820Z,22.60
2022-10-29T11:51:48.553Z,23.00
2022-10-29T11:55:24.428Z,23.10
2022-10-29T11:58:55.473Z,23.20
2022-10-29T12:02:30.704Z,23.40
2022-10-29T12:06:02.554Z,23.60
2022-10-29T12:09:47.779Z,23.80
2022-10-29T12:13:22.790Z,23.90
2022-10-29T12:16:55.763Z,23.90
2022-10-29T12:20:28.861Z,23.50
2022-10-29T12:24:01.886Z,23.20
2022-10-29T12:27:35.867Z,23.30
2022-10-29T12:31:16.431Z,23.00
2022-10-29T12:34:46.137Z,23.00
2022-10-29T12:38:26.119Z,22.80
2022-10-29T12:41:52.443Z,22.70
2022-10-29T12:45:30.495Z,22.50
2022-10-29T12:49:02.536Z,22.60
2022-10-29T12:52:34.619Z,22.70
2022-10-29T12:55:59.346Z,22.80
2022-10-29T12:59:34.390Z,22.90
2022-10-29T13:02:58.671Z,23.00
2022-10-29T13:06:49.471Z,23.10
2022-10-29T13:10:48.731Z,23.10
2022-10-29T13:14:16.802Z,23.20
2022-10-29T13:17:44.960Z,23.20
2022-10-29T13:21:09.689Z,23.10
2022-10-29T13:24:34.790Z,23.20
2022-10-29T13:27:58.782Z,23.10
2022-10-29T13:31:47.570Z,23.20
2022-10-29T13:35:52.619Z,23.30
2022-10-29T13:39:20.661Z,23.10
2022-10-29T13:42:46.487Z,23.00
2022-10-29T13:46:29.271Z,22.90
2022-10-29T13:49:53.357Z,22.90
2022-10-29T13:53:22.306Z,22.90
2022-10-29T13:56:50.128Z,23.00
2022-10-29T14:00:20.675Z,23.20
2022-10-29T14:03:57.332Z,23.20
2022-10-29T14:07:26.116Z,23.10
2022-10-29T14:10:52.688Z,22.90
2022-10-29T14:14:27.610Z,22.80
2022-10-29T14:17:52.735Z,22.50
2022-10-29T14:21:19.157Z,22.50
2022-10-29T14:24:42.877Z,22.50
2022-10-29T14:28:20.699Z,22.60
2022-10-29T14:31:44.399Z,22.60
2022-10-29T14:35:15.032Z,22.70
2022-10-29T14:38:43.739Z,22.70
2022-10-29T14:42:11.766Z,22.50
2022-10-29T14:45:35.617Z,22.40
2022-10-29T14:49:10.430Z,22.30
2022-10-29T14:52:39.642Z,22.30
2022-10-29T14:56:10.558Z,22.20
2022-10-29T14:59:36.379Z,22.10
2022-10-29T15:03:00.684Z,21.90
2022-10-29T15:06:28.567Z,21.90
2022-10-29T15:10:19.064Z,21.90
2022-10-29T15:13:42.601Z,21.90
2022-10-29T15:17:12.879Z,21.90
2022-10-29T15:20:45.546Z,21.90
2022-10-29T15:24:17.779Z,21.80
2022-10-29T15:27:44.709Z,21.80
2022-10-29T15:31:13.156Z,21.80
2022-10-29T15:34:38.264Z,21.70
2022-10-29T15:38:02.033Z,21.60
2022-10-29T15:41:38.077Z,21.60
2022-10-29T15:45:30.249Z,21.50
2022-10-29T15:48:54.354Z,21.50
2022-10-29T15:52:28.823Z,21.40
2022-10-29T15:55:55.646Z,21.40
2022-10-29T15:59:23.763Z,21.30
2022-10-29T16:02:48.899Z,21.30
2022-10-29T16:06:13.695Z,21.30
2022-10-29T16:09:38.509Z,21.30
2022-10-29T16:13:02.219Z,21.30
2022-10-29T16:16:26.732Z,21.30
2022-10-29T16:19:51.900Z,21.20
2022-10-29T16:23:15.981Z,21.20
2022-10-29T16:26:39.515Z,21.10
2022-10-29T16:30:03.236Z,21.00
2022-10-29T16:33:27.118Z,21.00
2022-10-29T16:36:52.027Z,20.90
2022-10-29T16:40:16.681Z,20.80
2022-10-29T16:43:40.335Z,20.60
2022-10-29T16:47:04.033Z,20.40
2022-10-29T16:50:29.505Z,20.30
2022-10-29T16:53:54.634Z,20.10
2022-10-29T16:57:18.275Z,20.10
2022-10-29T17:00:42.037Z,20.00
2022-10-29T17:04:05.819Z,19.80
2022-10-29T17:07:29.862Z,19.80
2022-10-29T17:11:00.388Z,19.70
2022-10-29T17:14:24.037Z,19.60
2022-10-29T17:17:47.722Z,19.60
2022-10-29T17:21:11.255Z,19.60
2022-10-29T17:24:35.004Z,19.60
2022-10-29T17:28:00.330Z,19.70
2022-10-29T17:31:25.543Z,19.60
2022-10-29T17:34:49.301Z,19.60
2022-10-29T17:38:13.607Z,19.60
2022-10-29T17:41:37.554Z,19.50
2022-10-29T17:45:02.651Z,19.50
2022-10-29T17:48:26.924Z,19.40
2022-10-29T17:51:50.549Z,19.30
2022-10-29T17:55:14.169Z,19.30
2022-10-29T17:58:39.451Z,19.30
2022-10-29T18:02:04.598Z,19.20
2022-10-29T18:05:28.257Z,19.00
2022-10-29T18:08:51.901Z,19.00
2022-10-29T18:12:15.579Z,19.00
2022-10-29T18:15:40.033Z,18.90
2022-10-29T18:19:04.984Z,18.90
2022-10-29T18:22:28.875Z,18.70
2022-10-29T18:26:03.000Z,18.70
2022-10-29T18:29:26.603Z,18.50
2022-10-29T18:32:50.500Z,18.40
2022-10-29T18:36:15.461Z,18.30
2022-10-29T18:39:39.888Z,18.30
2022-10-29T18:43:03.571Z,18.30
2022-10-29T18:46:28.045Z,18.30
2022-10-29T18:49:51.591Z,18.30
2022-10-29T18:53:16.706Z,18.10
2022-10-29T18:56:40.655Z,18.00
2022-10-29T19:00:05.213Z,17.90
2022-10-29T19:03:28.852Z,17.80
2022-10-29T19:06:52.417Z,17.70
2022-10-29T19:10:17.664Z,17.70
2022-10-29T19:13:41.605Z,17.80
2022-10-29T19:17:05.206Z,17.70
2022-10-29T19:20:29.694Z,17.70
2022-10-29T19:23:55.877Z,17.60
2022-10-29T19:27:20.883Z,17.60
2022-10-29T19:30:44.470Z,17.50
2022-10-29T19:34:09.564Z,17.50
2022-10-29T19:37:33.250Z,17.50
2022-10-29T19:40:58.210Z,17.60
2022-10-29T19:44:23.294Z,17.50
2022-10-29T19:47:47.035Z,17.20
2022-10-29T19:51:11.776Z,17.20
2022-10-29T19:54:35.437Z,17.20
2022-10-29T19:57:59.186Z,17.20
2022-10-29T20:01:24.137Z,17.20
2022-10-29T20:04:47.837Z,17.10
2022-10-29T20:08:15.693Z,17.10
2022-10-29T20:11:40.045Z,17.00
2022-10-29T20:15:03.695Z,17.00
2022-10-29T20:18:28.611Z,17.00
2022-10-29T20:21:52.226Z,17.00
2022-10-29T20:25:19.992Z,16.90
2022-10-29T20:28:47.696Z,16.90
2022-10-29T20:32:11.360Z,16.80
2022-10-29T20:35:36.344Z,16.80
2022-10-29T20:39:00.176Z,16.70
2022-10-29T20:42:23.855Z,16.50
2022-10-29T20:45:47.552Z,16.40
2022-10-29T20:49:11.188Z,16.30
2022-10-29T20:52:36.214Z,16.30
2022-10-29T20:55:59.853Z,16.30
2022-10-29T20:59:23.376Z,16.30
2022-10-29T21:02:47.169Z,16.30
2022-10-29T21:06:17.046Z,16.30
2022-10-29T21:09:42.575Z,16.30
2022-10-29T21:13:06.509Z,16.30
2022-10-29T21:16:30.707Z,16.20
2022-10-29T21:19:54.259Z,16.30
2022-10-29T21:23:21.360Z,16.30
2022-10-29T21:26:48.974Z,16.30
2022-10-29T21:30:14.156Z,16.30
2022-10-29T21:33:38.080Z,16.30
2022-10-29T21:37:01.813Z,16.30
2022-10-29T21:40:25.427Z,16.30
2022-10-29T21:43:50.368Z,16.40
2022-10-29T21:47:14.030Z,16.50
2022-10-29T21:50:38.127Z,16.50
2022-10-29T21:54:01.756Z,16.50
2022-10-29T21:57:25.356Z,16.60
2022-10-29T22:00:50.604Z,16.50
2022-10-29T22:04:14.361Z,16.50
2022-10-29T22:07:38.019Z,16.50
2022-10-29T22:11:02.333Z,16.60
2022-10-29T22:14:25.927Z,16.50
2022-10-29T22:17:50.916Z,16.50
2022-10-29T22:21:17.318Z,16.50
2022-10-29T22:24:40.986Z,16.40
2022-10-29T22:28:04.924Z,16.40
2022-10-29T22:31:28.696Z,16.30
2022-10-29T22:34:53.718Z,16.30
2022-10-29T22:38:17.329Z,16.30
2022-10-29T22:41:40.959Z,16.30
2022-10-29T22:45:05.186Z,16.20
2022-10-29T22:48:28.841Z,16.20
2022-10-29T22:51:58.607Z,16.20
2022-10-29T22:55:25.133Z,16.20
2022-10-29T22:58:49.294Z,16.20
2022-10-29T23:02:13.117Z,16.20
2022-10-29T23:05:36.817Z,16.10
2022-10-29T23:09:02.468Z,16.00
2022-10-29T23:12:26.189Z,15.90
2022-10-29T23:15:50.237Z,15.90
2022-10-29T23:19:13.928Z,15.90
2022-10-29T23:22:37.605Z,15.90
2022-10-29T23:26:03.840Z,15.80
2022-10-29T23:29:27.479Z,15.90
2022-10-29T23:32:51.203Z,15.90
2022-10-29T23:36:15.982Z,16.00
2022-10-29T23:39:39.646Z,16.00
2022-10-29T23:43:04.591Z,16.10
2022-10-29T23:46:28.311Z,16.20
2022-10-29T23:49:52.006Z,16.20
2022-10-29T23:53:16.048Z,16.20
2022-10-29T23:56:39.660Z,16.30
